sensor_id;sensor_type;location;lat;lon;timestamp;temperature;humidity
33271;DHT22;53180;51.344;6.152;2023-03-31T00:01:07;11.20;83.70
33271;DHT22;53180;51.344;6.152;2023-03-31T00:03:36;11.20;83.70
33271;DHT22;53180;51.344;6.152;2023-03-31T00:06:12;11.20;84.00
33271;DHT22;53180;51.344;6.152;2023-03-31T00:08:45;11.20;84.20
33271;DHT22;53180;51.344;6.152;2023-03-31T00:11:18;11.20;84.60
33271;DHT22;53180;51.344;6.152;2023-03-31T00:13:46;11.20;85.20
33271;DHT22;53180;51.344;6.152;2023-03-31T00:16:15;11.20;85.50
33271;DHT22;53180;51.344;6.152;2023-03-31T00:18:43;11.20;85.80
33271;DHT22;53180;51.344;6.152;2023-03-31T00:21:16;11.10;86.20
33271;DHT22;53180;51.344;6.152;2023-03-31T00:23:53;11.00;86.80
33271;DHT22;53180;51.344;6.152;2023-03-31T00:26:23;11.00;87.30
33271;DHT22;53180;51.344;6.152;2023-03-31T00:28:52;10.90;87.50
33271;DHT22;53180;51.344;6.152;2023-03-31T00:31:21;10.90;87.70
33271;DHT22;53180;51.344;6.152;2023-03-31T00:33:50;10.90;87.80
33271;DHT22;53180;51.344;6.152;2023-03-31T00:36:19;10.90;87.90
33271;DHT22;53180;51.344;6.152;2023-03-31T00:38:53;10.90;88.20
33271;DHT22;53180;51.344;6.152;2023-03-31T00:41:21;10.90;88.20
33271;DHT22;53180;51.344;6.152;2023-03-31T00:44:05;10.90;88.40
33271;DHT22;53180;51.344;6.152;2023-03-31T00:46:42;10.80;88.40
33271;DHT22;53180;51.344;6.152;2023-03-31T00:49:17;10.90;88.50
33271;DHT22;53180;51.344;6.152;2023-03-31T00:51:51;10.80;88.60
33271;DHT22;53180;51.344;6.152;2023-03-31T00:54:23;10.80;88.60
33271;DHT22;53180;51.344;6.152;2023-03-31T00:56:54;10.80;88.70
33271;DHT22;53180;51.344;6.152;2023-03-31T00:59:30;10.80;88.80
33271;DHT22;53180;51.344;6.152;2023-03-31T01:02:02;10.70;88.80
33271;DHT22;53180;51.344;6.152;2023-03-31T01:04:35;10.80;88.60
33271;DHT22;53180;51.344;6.152;2023-03-31T01:07:12;10.80;88.80
33271;DHT22;53180;51.344;6.152;2023-03-31T01:09:44;10.70;88.70
33271;DHT22;53180;51.344;6.152;2023-03-31T01:12:15;10.70;88.80
33271;DHT22;53180;51.344;6.152;2023-03-31T01:14:44;10.70;88.90
33271;DHT22;53180;51.344;6.152;2023-03-31T01:17:12;10.70;88.90
33271;DHT22;53180;51.344;6.152;2023-03-31T01:19:54;10.70;89.00
33271;DHT22;53180;51.344;6.152;2023-03-31T01:23:05;10.70;88.90
33271;DHT22;53180;51.344;6.152;2023-03-31T01:26:23;10.70;88.90
33271;DHT22;53180;51.344;6.152;2023-03-31T01:29:11;10.60;88.90
33271;DHT22;53180;51.344;6.152;2023-03-31T01:32:00;10.70;89.00
33271;DHT22;53180;51.344;6.152;2023-03-31T01:35:15;10.60;89.10
33271;DHT22;53180;51.344;6.152;2023-03-31T01:41:36;10.70;89.10
33271;DHT22;53180;51.344;6.152;2023-03-31T01:44:15;10.70;89.20
33271;DHT22;53180;51.344;6.152;2023-03-31T01:46:51;10.70;89.10
33271;DHT22;53180;51.344;6.152;2023-03-31T01:49:24;10.70;89.10
33271;DHT22;53180;51.344;6.152;2023-03-31T01:52:02;10.80;89.10
33271;DHT22;53180;51.344;6.152;2023-03-31T01:54:37;10.80;89.10
33271;DHT22;53180;51.344;6.152;2023-03-31T01:57:12;10.80;89.20
33271;DHT22;53180;51.344;6.152;2023-03-31T01:59:48;10.80;89.20
33271;DHT22;53180;51.344;6.152;2023-03-31T02:02:22;10.80;89.30
33271;DHT22;53180;51.344;6.152;2023-03-31T02:04:57;10.80;89.40
33271;DHT22;53180;51.344;6.152;2023-03-31T02:07:31;10.80;89.50
33271;DHT22;53180;51.344;6.152;2023-03-31T02:10:04;10.80;89.60
33271;DHT22;53180;51.344;6.152;2023-03-31T02:12:38;10.80;89.60
33271;DHT22;53180;51.344;6.152;2023-03-31T02:15:10;10.80;89.60
33271;DHT22;53180;51.344;6.152;2023-03-31T02:17:42;10.80;89.80
33271;DHT22;53180;51.344;6.152;2023-03-31T02:20:14;10.80;89.80
33271;DHT22;53180;51.344;6.152;2023-03-31T02:22:48;10.80;89.90
33271;DHT22;53180;51.344;6.152;2023-03-31T02:25:21;10.80;90.00
33271;DHT22;53180;51.344;6.152;2023-03-31T02:27:56;10.80;90.00
33271;DHT22;53180;51.344;6.152;2023-03-31T02:30:34;10.90;90.00
33271;DHT22;53180;51.344;6.152;2023-03-31T02:33:06;10.90;90.00
33271;DHT22;53180;51.344;6.152;2023-03-31T02:35:34;10.90;90.10
33271;DHT22;53180;51.344;6.152;2023-03-31T02:38:02;10.90;89.90
33271;DHT22;53180;51.344;6.152;2023-03-31T02:40:32;10.90;89.80
33271;DHT22;53180;51.344;6.152;2023-03-31T02:43:02;10.90;89.80
33271;DHT22;53180;51.344;6.152;2023-03-31T02:45:39;10.90;89.70
33271;DHT22;53180;51.344;6.152;2023-03-31T02:48:14;10.90;89.80
33271;DHT22;53180;51.344;6.152;2023-03-31T02:54:24;10.90;89.80
33271;DHT22;53180;51.344;6.152;2023-03-31T02:57:32;10.90;89.90
33271;DHT22;53180;51.344;6.152;2023-03-31T03:00:23;10.90;89.80
33271;DHT22;53180;51.344;6.152;2023-03-31T03:03:08;10.90;89.90
33271;DHT22;53180;51.344;6.152;2023-03-31T03:05:48;10.80;89.90
33271;DHT22;53180;51.344;6.152;2023-03-31T03:08:26;10.80;89.80
33271;DHT22;53180;51.344;6.152;2023-03-31T03:11:03;10.80;89.70
33271;DHT22;53180;51.344;6.152;2023-03-31T03:13:36;10.80;89.60
33271;DHT22;53180;51.344;6.152;2023-03-31T03:16:18;10.80;89.60
33271;DHT22;53180;51.344;6.152;2023-03-31T03:18:57;10.80;89.50
33271;DHT22;53180;51.344;6.152;2023-03-31T03:21:27;10.80;89.30
33271;DHT22;53180;51.344;6.152;2023-03-31T03:23:55;10.70;89.30
33271;DHT22;53180;51.344;6.152;2023-03-31T03:26:24;10.70;89.40
33271;DHT22;53180;51.344;6.152;2023-03-31T03:28:54;10.70;89.30
33271;DHT22;53180;51.344;6.152;2023-03-31T03:31:25;10.70;89.20
33271;DHT22;53180;51.344;6.152;2023-03-31T03:33:53;10.70;89.20
33271;DHT22;53180;51.344;6.152;2023-03-31T03:36:22;10.70;89.30
33271;DHT22;53180;51.344;6.152;2023-03-31T03:38:50;10.70;89.40
33271;DHT22;53180;51.344;6.152;2023-03-31T03:41:18;10.60;89.40
33271;DHT22;53180;51.344;6.152;2023-03-31T03:43:46;10.60;89.50
33271;DHT22;53180;51.344;6.152;2023-03-31T03:46:15;10.70;89.40
33271;DHT22;53180;51.344;6.152;2023-03-31T03:48:45;10.60;89.40
33271;DHT22;53180;51.344;6.152;2023-03-31T03:51:13;10.60;89.40
33271;DHT22;53180;51.344;6.152;2023-03-31T03:53:41;10.60;89.40
33271;DHT22;53180;51.344;6.152;2023-03-31T03:56:09;10.60;89.30
33271;DHT22;53180;51.344;6.152;2023-03-31T03:58:38;10.50;89.40
33271;DHT22;53180;51.344;6.152;2023-03-31T04:01:06;10.50;89.40
33271;DHT22;53180;51.344;6.152;2023-03-31T04:03:34;10.60;89.30
33271;DHT22;53180;51.344;6.152;2023-03-31T04:06:04;10.50;89.20
33271;DHT22;53180;51.344;6.152;2023-03-31T04:08:33;10.50;89.00
33271;DHT22;53180;51.344;6.152;2023-03-31T04:11:02;10.60;89.10
33271;DHT22;53180;51.344;6.152;2023-03-31T04:13:31;10.50;88.90
33271;DHT22;53180;51.344;6.152;2023-03-31T04:15:59;10.50;88.90
33271;DHT22;53180;51.344;6.152;2023-03-31T04:18:27;10.50;89.00
33271;DHT22;53180;51.344;6.152;2023-03-31T04:20:56;10.50;88.80
33271;DHT22;53180;51.344;6.152;2023-03-31T04:23:33;10.50;88.80
33271;DHT22;53180;51.344;6.152;2023-03-31T04:26:04;10.50;88.60
33271;DHT22;53180;51.344;6.152;2023-03-31T04:28:35;10.50;88.50
33271;DHT22;53180;51.344;6.152;2023-03-31T04:31:04;10.50;88.30
33271;DHT22;53180;51.344;6.152;2023-03-31T04:33:32;10.50;88.30
33271;DHT22;53180;51.344;6.152;2023-03-31T04:36:05;10.40;88.10
33271;DHT22;53180;51.344;6.152;2023-03-31T04:38:46;10.50;87.60
33271;DHT22;53180;51.344;6.152;2023-03-31T04:41:17;10.40;87.70
33271;DHT22;53180;51.344;6.152;2023-03-31T04:43:45;10.40;87.70
33271;DHT22;53180;51.344;6.152;2023-03-31T04:46:13;10.40;87.60
33271;DHT22;53180;51.344;6.152;2023-03-31T04:48:42;10.40;87.50
33271;DHT22;53180;51.344;6.152;2023-03-31T04:51:10;10.40;87.40
33271;DHT22;53180;51.344;6.152;2023-03-31T04:53:41;10.30;87.50
33271;DHT22;53180;51.344;6.152;2023-03-31T04:56:10;10.30;87.10
33271;DHT22;53180;51.344;6.152;2023-03-31T04:58:39;10.30;87.20
33271;DHT22;53180;51.344;6.152;2023-03-31T05:01:07;10.30;87.10
33271;DHT22;53180;51.344;6.152;2023-03-31T05:03:39;10.30;87.20
33271;DHT22;53180;51.344;6.152;2023-03-31T05:06:11;10.30;87.10
33271;DHT22;53180;51.344;6.152;2023-03-31T05:08:39;10.40;87.10
33271;DHT22;53180;51.344;6.152;2023-03-31T05:11:08;10.40;87.00
33271;DHT22;53180;51.344;6.152;2023-03-31T05:13:37;10.40;87.30
33271;DHT22;53180;51.344;6.152;2023-03-31T05:16:08;10.30;87.30
33271;DHT22;53180;51.344;6.152;2023-03-31T05:18:38;10.40;87.50
33271;DHT22;53180;51.344;6.152;2023-03-31T05:21:10;10.30;87.60
33271;DHT22;53180;51.344;6.152;2023-03-31T05:23:40;10.30;87.60
33271;DHT22;53180;51.344;6.152;2023-03-31T05:26:10;10.30;87.90
33271;DHT22;53180;51.344;6.152;2023-03-31T05:28:39;10.20;88.20
33271;DHT22;53180;51.344;6.152;2023-03-31T05:31:09;10.20;88.50
33271;DHT22;53180;51.344;6.152;2023-03-31T05:33:39;10.20;88.50
33271;DHT22;53180;51.344;6.152;2023-03-31T05:36:09;10.20;88.60
33271;DHT22;53180;51.344;6.152;2023-03-31T05:38:39;10.20;88.60
33271;DHT22;53180;51.344;6.152;2023-03-31T05:41:10;10.20;88.70
33271;DHT22;53180;51.344;6.152;2023-03-31T05:43:38;10.20;88.70
33271;DHT22;53180;51.344;6.152;2023-03-31T05:46:08;10.20;88.50
33271;DHT22;53180;51.344;6.152;2023-03-31T05:48:37;10.20;88.60
33271;DHT22;53180;51.344;6.152;2023-03-31T05:51:05;10.20;88.70
33271;DHT22;53180;51.344;6.152;2023-03-31T05:53:33;10.20;88.80
33271;DHT22;53180;51.344;6.152;2023-03-31T05:56:03;10.20;88.70
33271;DHT22;53180;51.344;6.152;2023-03-31T05:58:36;10.20;88.80
33271;DHT22;53180;51.344;6.152;2023-03-31T06:01:06;10.20;88.90
33271;DHT22;53180;51.344;6.152;2023-03-31T06:03:37;10.20;89.10
33271;DHT22;53180;51.344;6.152;2023-03-31T06:06:08;10.20;89.00
33271;DHT22;53180;51.344;6.152;2023-03-31T06:08:38;10.20;89.00
33271;DHT22;53180;51.344;6.152;2023-03-31T06:11:09;10.20;89.10
33271;DHT22;53180;51.344;6.152;2023-03-31T06:13:40;10.20;89.20
33271;DHT22;53180;51.344;6.152;2023-03-31T06:16:11;10.20;89.30
33271;DHT22;53180;51.344;6.152;2023-03-31T06:18:40;10.20;89.30
33271;DHT22;53180;51.344;6.152;2023-03-31T06:21:11;10.20;89.40
33271;DHT22;53180;51.344;6.152;2023-03-31T06:23:42;10.20;89.50
33271;DHT22;53180;51.344;6.152;2023-03-31T06:26:13;10.20;89.50
33271;DHT22;53180;51.344;6.152;2023-03-31T06:28:44;10.20;89.70
33271;DHT22;53180;51.344;6.152;2023-03-31T06:31:14;10.20;89.70
33271;DHT22;53180;51.344;6.152;2023-03-31T06:33:44;10.20;89.90
33271;DHT22;53180;51.344;6.152;2023-03-31T06:36:14;10.20;89.80
33271;DHT22;53180;51.344;6.152;2023-03-31T06:38:44;10.20;89.90
33271;DHT22;53180;51.344;6.152;2023-03-31T06:41:14;10.20;90.10
33271;DHT22;53180;51.344;6.152;2023-03-31T06:43:45;10.30;90.20
33271;DHT22;53180;51.344;6.152;2023-03-31T06:46:14;10.30;90.10
33271;DHT22;53180;51.344;6.152;2023-03-31T06:48:42;10.20;90.20
33271;DHT22;53180;51.344;6.152;2023-03-31T06:51:11;10.20;90.20
33271;DHT22;53180;51.344;6.152;2023-03-31T06:53:39;10.20;90.40
33271;DHT22;53180;51.344;6.152;2023-03-31T06:56:07;10.20;90.60
33271;DHT22;53180;51.344;6.152;2023-03-31T06:58:36;10.20;90.60
33271;DHT22;53180;51.344;6.152;2023-03-31T07:01:06;10.20;90.60
33271;DHT22;53180;51.344;6.152;2023-03-31T07:03:35;10.20;90.80
33271;DHT22;53180;51.344;6.152;2023-03-31T07:06:03;10.20;90.80
33271;DHT22;53180;51.344;6.152;2023-03-31T07:08:32;10.20;91.00
33271;DHT22;53180;51.344;6.152;2023-03-31T07:11:01;10.30;91.10
33271;DHT22;53180;51.344;6.152;2023-03-31T07:13:29;10.30;91.20
33271;DHT22;53180;51.344;6.152;2023-03-31T07:15:58;10.30;91.20
33271;DHT22;53180;51.344;6.152;2023-03-31T07:18:27;10.30;91.20
33271;DHT22;53180;51.344;6.152;2023-03-31T07:21:01;10.30;91.10
33271;DHT22;53180;51.344;6.152;2023-03-31T07:23:34;10.30;91.10
33271;DHT22;53180;51.344;6.152;2023-03-31T07:26:04;10.30;91.00
33271;DHT22;53180;51.344;6.152;2023-03-31T07:28:34;10.30;91.00
33271;DHT22;53180;51.344;6.152;2023-03-31T07:31:05;10.30;91.00
33271;DHT22;53180;51.344;6.152;2023-03-31T07:33:38;10.40;91.00
33271;DHT22;53180;51.344;6.152;2023-03-31T07:36:08;10.50;91.10
33271;DHT22;53180;51.344;6.152;2023-03-31T07:38:40;10.50;91.00
33271;DHT22;53180;51.344;6.152;2023-03-31T07:41:10;10.50;90.90
33271;DHT22;53180;51.344;6.152;2023-03-31T07:43:39;10.60;90.90
33271;DHT22;53180;51.344;6.152;2023-03-31T07:46:13;10.60;90.90
33271;DHT22;53180;51.344;6.152;2023-03-31T07:48:45;10.70;90.70
33271;DHT22;53180;51.344;6.152;2023-03-31T07:51:14;10.70;90.80
33271;DHT22;53180;51.344;6.152;2023-03-31T07:53:43;10.80;90.60
33271;DHT22;53180;51.344;6.152;2023-03-31T07:56:12;10.80;90.70
33271;DHT22;53180;51.344;6.152;2023-03-31T07:58:40;10.90;90.70
33271;DHT22;53180;51.344;6.152;2023-03-31T08:01:08;11.00;90.60
33271;DHT22;53180;51.344;6.152;2023-03-31T08:03:37;11.00;90.40
33271;DHT22;53180;51.344;6.152;2023-03-31T08:06:08;11.10;90.50
33271;DHT22;53180;51.344;6.152;2023-03-31T08:08:36;11.10;90.00
33271;DHT22;53180;51.344;6.152;2023-03-31T08:11:09;11.20;89.90
33271;DHT22;53180;51.344;6.152;2023-03-31T08:13:37;11.20;89.70
33271;DHT22;53180;51.344;6.152;2023-03-31T08:16:05;11.10;89.60
33271;DHT22;53180;51.344;6.152;2023-03-31T08:18:34;11.20;89.40
33271;DHT22;53180;51.344;6.152;2023-03-31T08:21:03;11.10;89.20
33271;DHT22;53180;51.344;6.152;2023-03-31T08:23:33;11.10;89.20
33271;DHT22;53180;51.344;6.152;2023-03-31T08:26:09;11.10;89.00
33271;DHT22;53180;51.344;6.152;2023-03-31T08:28:41;11.10;89.20
33271;DHT22;53180;51.344;6.152;2023-03-31T08:31:09;11.20;88.90
33271;DHT22;53180;51.344;6.152;2023-03-31T08:33:38;11.10;88.80
33271;DHT22;53180;51.344;6.152;2023-03-31T08:36:07;11.20;88.70
33271;DHT22;53180;51.344;6.152;2023-03-31T08:38:40;11.20;88.50
33271;DHT22;53180;51.344;6.152;2023-03-31T08:41:21;11.20;88.50
33271;DHT22;53180;51.344;6.152;2023-03-31T08:43:58;11.30;88.20
33271;DHT22;53180;51.344;6.152;2023-03-31T08:46:30;11.30;87.50
33271;DHT22;53180;51.344;6.152;2023-03-31T08:49:02;11.40;87.40
33271;DHT22;53180;51.344;6.152;2023-03-31T08:51:34;11.50;87.50
33271;DHT22;53180;51.344;6.152;2023-03-31T08:54:06;11.60;87.20
33271;DHT22;53180;51.344;6.152;2023-03-31T08:56:44;11.70;86.90
33271;DHT22;53180;51.344;6.152;2023-03-31T08:59:19;11.80;86.30
33271;DHT22;53180;51.344;6.152;2023-03-31T09:01:58;11.80;86.20
33271;DHT22;53180;51.344;6.152;2023-03-31T09:04:49;11.90;85.90
33271;DHT22;53180;51.344;6.152;2023-03-31T09:07:32;12.00;85.10
33271;DHT22;53180;51.344;6.152;2023-03-31T09:10:31;12.00;85.10
33271;DHT22;53180;51.344;6.152;2023-03-31T09:13:17;12.10;84.90
33271;DHT22;53180;51.344;6.152;2023-03-31T09:16:03;12.10;85.00
33271;DHT22;53180;51.344;6.152;2023-03-31T09:18:35;12.10;85.40
33271;DHT22;53180;51.344;6.152;2023-03-31T09:21:07;12.10;86.00
33271;DHT22;53180;51.344;6.152;2023-03-31T09:23:45;12.00;86.80
33271;DHT22;53180;51.344;6.152;2023-03-31T09:26:24;11.80;87.10
33271;DHT22;53180;51.344;6.152;2023-03-31T09:28:56;11.80;87.10
33271;DHT22;53180;51.344;6.152;2023-03-31T09:31:26;11.80;87.40
33271;DHT22;53180;51.344;6.152;2023-03-31T09:33:59;11.80;87.80
33271;DHT22;53180;51.344;6.152;2023-03-31T09:36:29;11.90;87.70
33271;DHT22;53180;51.344;6.152;2023-03-31T09:38:58;11.90;87.20
33271;DHT22;53180;51.344;6.152;2023-03-31T09:41:28;12.00;87.00
33271;DHT22;53180;51.344;6.152;2023-03-31T09:44:00;12.00;85.70
33271;DHT22;53180;51.344;6.152;2023-03-31T09:46:30;12.00;85.10
33271;DHT22;53180;51.344;6.152;2023-03-31T09:49:03;12.10;85.10
33271;DHT22;53180;51.344;6.152;2023-03-31T09:51:34;12.20;84.40
33271;DHT22;53180;51.344;6.152;2023-03-31T09:54:09;12.30;84.70
33271;DHT22;53180;51.344;6.152;2023-03-31T09:56:48;12.40;84.60
33271;DHT22;53180;51.344;6.152;2023-03-31T09:59:21;12.60;85.10
33271;DHT22;53180;51.344;6.152;2023-03-31T10:01:52;12.80;83.60
33271;DHT22;53180;51.344;6.152;2023-03-31T10:04:22;12.90;82.60
33271;DHT22;53180;51.344;6.152;2023-03-31T10:06:53;13.00;83.70
33271;DHT22;53180;51.344;6.152;2023-03-31T10:09:25;13.00;81.20
33271;DHT22;53180;51.344;6.152;2023-03-31T10:11:57;13.10;80.80
33271;DHT22;53180;51.344;6.152;2023-03-31T10:14:33;12.90;81.10
33271;DHT22;53180;51.344;6.152;2023-03-31T10:17:06;12.80;81.80
33271;DHT22;53180;51.344;6.152;2023-03-31T10:19:35;12.70;82.70
33271;DHT22;53180;51.344;6.152;2023-03-31T10:22:05;12.50;82.80
33271;DHT22;53180;51.344;6.152;2023-03-31T10:24:42;12.30;83.10
33271;DHT22;53180;51.344;6.152;2023-03-31T10:27:20;12.40;84.10
33271;DHT22;53180;51.344;6.152;2023-03-31T10:29:51;12.40;83.60
33271;DHT22;53180;51.344;6.152;2023-03-31T10:32:23;12.50;83.60
33271;DHT22;53180;51.344;6.152;2023-03-31T10:34:56;12.50;83.10
33271;DHT22;53180;51.344;6.152;2023-03-31T10:37:27;12.50;81.60
33271;DHT22;53180;51.344;6.152;2023-03-31T10:39:58;12.50;81.90
33271;DHT22;53180;51.344;6.152;2023-03-31T10:42:29;12.60;81.00
33271;DHT22;53180;51.344;6.152;2023-03-31T10:45:11;12.60;80.60
33271;DHT22;53180;51.344;6.152;2023-03-31T10:47:57;12.70;79.00
33271;DHT22;53180;51.344;6.152;2023-03-31T10:50:27;12.70;78.20
33271;DHT22;53180;51.344;6.152;2023-03-31T10:53:02;12.70;78.30
33271;DHT22;53180;51.344;6.152;2023-03-31T10:55:35;12.70;78.40
33271;DHT22;53180;51.344;6.152;2023-03-31T10:58:19;12.90;79.10
33271;DHT22;53180;51.344;6.152;2023-03-31T11:01:01;13.00;78.30
33271;DHT22;53180;51.344;6.152;2023-03-31T11:03:40;13.00;77.40
33271;DHT22;53180;51.344;6.152;2023-03-31T11:06:20;13.00;78.00
33271;DHT22;53180;51.344;6.152;2023-03-31T11:09:00;13.10;77.20
33271;DHT22;53180;51.344;6.152;2023-03-31T11:11:55;13.20;76.60
33271;DHT22;53180;51.344;6.152;2023-03-31T11:14:35;13.30;75.60
33271;DHT22;53180;51.344;6.152;2023-03-31T11:17:18;13.30;76.50
33271;DHT22;53180;51.344;6.152;2023-03-31T11:19:57;13.40;76.30
33271;DHT22;53180;51.344;6.152;2023-03-31T11:22:39;13.40;75.80
33271;DHT22;53180;51.344;6.152;2023-03-31T11:25:20;13.50;76.70
33271;DHT22;53180;51.344;6.152;2023-03-31T11:28:03;13.60;76.10
33271;DHT22;53180;51.344;6.152;2023-03-31T11:30:53;13.70;74.60
33271;DHT22;53180;51.344;6.152;2023-03-31T11:33:37;13.70;75.30
33271;DHT22;53180;51.344;6.152;2023-03-31T11:39:20;13.80;74.90
33271;DHT22;53180;51.344;6.152;2023-03-31T11:41:54;13.70;75.60
33271;DHT22;53180;51.344;6.152;2023-03-31T11:44:28;13.60;75.90
33271;DHT22;53180;51.344;6.152;2023-03-31T11:47:04;13.40;76.60
33271;DHT22;53180;51.344;6.152;2023-03-31T11:49:37;13.20;78.00
33271;DHT22;53180;51.344;6.152;2023-03-31T11:52:18;13.20;78.60
33271;DHT22;53180;51.344;6.152;2023-03-31T11:54:54;13.30;78.40
33271;DHT22;53180;51.344;6.152;2023-03-31T11:57:30;13.30;78.70
33271;DHT22;53180;51.344;6.152;2023-03-31T12:00:05;13.40;77.80
33271;DHT22;53180;51.344;6.152;2023-03-31T12:02:45;13.50;77.40
33271;DHT22;53180;51.344;6.152;2023-03-31T12:05:16;13.70;76.20
33271;DHT22;53180;51.344;6.152;2023-03-31T12:07:50;13.80;76.20
33271;DHT22;53180;51.344;6.152;2023-03-31T12:10:31;13.90;75.90
33271;DHT22;53180;51.344;6.152;2023-03-31T12:13:05;13.80;75.30
33271;DHT22;53180;51.344;6.152;2023-03-31T12:15:47;13.80;76.20
33271;DHT22;53180;51.344;6.152;2023-03-31T12:18:23;13.90;75.40
33271;DHT22;53180;51.344;6.152;2023-03-31T12:20:55;13.80;74.70
33271;DHT22;53180;51.344;6.152;2023-03-31T12:23:27;13.80;74.50
33271;DHT22;53180;51.344;6.152;2023-03-31T12:26:00;13.90;74.80
33271;DHT22;53180;51.344;6.152;2023-03-31T12:28:33;13.90;73.80
33271;DHT22;53180;51.344;6.152;2023-03-31T12:31:05;13.90;74.20
33271;DHT22;53180;51.344;6.152;2023-03-31T12:33:35;13.90;75.60
33271;DHT22;53180;51.344;6.152;2023-03-31T12:36:09;13.90;74.60
33271;DHT22;53180;51.344;6.152;2023-03-31T12:38:56;13.90;74.70
33271;DHT22;53180;51.344;6.152;2023-03-31T12:41:40;13.90;73.30
33271;DHT22;53180;51.344;6.152;2023-03-31T12:44:27;13.90;73.90
33271;DHT22;53180;51.344;6.152;2023-03-31T12:47:15;14.00;72.70
33271;DHT22;53180;51.344;6.152;2023-03-31T12:50:13;13.90;73.00
33271;DHT22;53180;51.344;6.152;2023-03-31T12:52:57;13.90;73.40
33271;DHT22;53180;51.344;6.152;2023-03-31T12:55:35;13.90;72.00
33271;DHT22;53180;51.344;6.152;2023-03-31T12:58:34;13.90;72.50
33271;DHT22;53180;51.344;6.152;2023-03-31T13:01:10;14.00;73.60
33271;DHT22;53180;51.344;6.152;2023-03-31T13:03:53;14.00;72.40
33271;DHT22;53180;51.344;6.152;2023-03-31T13:06:57;14.10;71.60
33271;DHT22;53180;51.344;6.152;2023-03-31T13:09:47;14.10;71.20
33271;DHT22;53180;51.344;6.152;2023-03-31T13:12:21;14.10;70.50
33271;DHT22;53180;51.344;6.152;2023-03-31T13:14:52;14.00;69.90
33271;DHT22;53180;51.344;6.152;2023-03-31T13:17:29;14.00;70.00
33271;DHT22;53180;51.344;6.152;2023-03-31T13:20:28;14.00;69.90
33271;DHT22;53180;51.344;6.152;2023-03-31T13:23:14;13.90;69.30
33271;DHT22;53180;51.344;6.152;2023-03-31T13:25:47;13.90;69.40
33271;DHT22;53180;51.344;6.152;2023-03-31T13:28:24;13.80;70.30
33271;DHT22;53180;51.344;6.152;2023-03-31T13:31:08;13.90;70.80
33271;DHT22;53180;51.344;6.152;2023-03-31T13:33:41;14.00;69.50
33271;DHT22;53180;51.344;6.152;2023-03-31T13:36:47;14.00;69.50
33271;DHT22;53180;51.344;6.152;2023-03-31T13:39:36;14.00;68.90
33271;DHT22;53180;51.344;6.152;2023-03-31T13:42:49;14.00;68.90
33271;DHT22;53180;51.344;6.152;2023-03-31T13:48:43;14.00;68.20
33271;DHT22;53180;51.344;6.152;2023-03-31T13:51:22;13.90;69.90
33271;DHT22;53180;51.344;6.152;2023-03-31T13:54:06;13.80;72.80
33271;DHT22;53180;51.344;6.152;2023-03-31T13:57:19;13.40;76.50
33271;DHT22;53180;51.344;6.152;2023-03-31T14:00:24;13.00;78.60
33271;DHT22;53180;51.344;6.152;2023-03-31T14:03:12;12.80;79.60
33271;DHT22;53180;51.344;6.152;2023-03-31T14:05:49;12.70;80.50
33271;DHT22;53180;51.344;6.152;2023-03-31T14:08:28;12.70;81.80
33271;DHT22;53180;51.344;6.152;2023-03-31T14:11:19;12.60;81.20
33271;DHT22;53180;51.344;6.152;2023-03-31T14:14:01;12.50;82.60
33271;DHT22;53180;51.344;6.152;2023-03-31T14:16:35;12.50;81.50
33271;DHT22;53180;51.344;6.152;2023-03-31T14:19:32;12.50;81.90
33271;DHT22;53180;51.344;6.152;2023-03-31T14:22:15;12.50;82.00
33271;DHT22;53180;51.344;6.152;2023-03-31T14:24:52;12.50;81.50
33271;DHT22;53180;51.344;6.152;2023-03-31T14:27:39;12.50;81.50
33271;DHT22;53180;51.344;6.152;2023-03-31T14:30:22;12.70;82.50
33271;DHT22;53180;51.344;6.152;2023-03-31T14:33:07;12.80;82.30
33271;DHT22;53180;51.344;6.152;2023-03-31T14:35:41;12.90;81.70
33271;DHT22;53180;51.344;6.152;2023-03-31T14:38:17;13.00;81.40
33271;DHT22;53180;51.344;6.152;2023-03-31T14:40:48;13.00;80.60
33271;DHT22;53180;51.344;6.152;2023-03-31T14:43:21;12.90;80.10
33271;DHT22;53180;51.344;6.152;2023-03-31T14:45:59;12.90;79.10
33271;DHT22;53180;51.344;6.152;2023-03-31T14:48:32;12.80;78.60
33271;DHT22;53180;51.344;6.152;2023-03-31T14:51:07;12.70;78.40
33271;DHT22;53180;51.344;6.152;2023-03-31T14:53:36;12.70;78.80
33271;DHT22;53180;51.344;6.152;2023-03-31T14:56:06;12.70;79.80
33271;DHT22;53180;51.344;6.152;2023-03-31T14:58:40;12.80;80.10
33271;DHT22;53180;51.344;6.152;2023-03-31T15:01:14;12.80;79.40
33271;DHT22;53180;51.344;6.152;2023-03-31T15:03:46;12.80;78.70
33271;DHT22;53180;51.344;6.152;2023-03-31T15:06:14;12.70;79.00
33271;DHT22;53180;51.344;6.152;2023-03-31T15:08:43;12.70;78.80
33271;DHT22;53180;51.344;6.152;2023-03-31T15:11:14;12.70;78.50
33271;DHT22;53180;51.344;6.152;2023-03-31T15:13:47;12.70;79.10
33271;DHT22;53180;51.344;6.152;2023-03-31T15:16:34;12.60;78.40
33271;DHT22;53180;51.344;6.152;2023-03-31T15:19:13;12.50;79.40
33271;DHT22;53180;51.344;6.152;2023-03-31T15:21:43;12.50;79.60
33271;DHT22;53180;51.344;6.152;2023-03-31T15:24:13;12.50;79.40
33271;DHT22;53180;51.344;6.152;2023-03-31T15:26:44;12.50;79.50
33271;DHT22;53180;51.344;6.152;2023-03-31T15:29:18;12.50;79.10
33271;DHT22;53180;51.344;6.152;2023-03-31T15:31:49;12.40;79.30
33271;DHT22;53180;51.344;6.152;2023-03-31T15:34:21;12.40;80.00
33271;DHT22;53180;51.344;6.152;2023-03-31T15:36:55;12.40;80.00
33271;DHT22;53180;51.344;6.152;2023-03-31T15:39:25;12.30;80.00
33271;DHT22;53180;51.344;6.152;2023-03-31T15:41:55;12.30;80.10
33271;DHT22;53180;51.344;6.152;2023-03-31T15:44:38;12.30;80.50
33271;DHT22;53180;51.344;6.152;2023-03-31T15:47:16;12.20;80.20
33271;DHT22;53180;51.344;6.152;2023-03-31T15:49:52;12.20;80.10
33271;DHT22;53180;51.344;6.152;2023-03-31T15:52:26;12.20;79.90
33271;DHT22;53180;51.344;6.152;2023-03-31T15:54:56;12.20;80.10
33271;DHT22;53180;51.344;6.152;2023-03-31T15:57:31;12.20;80.20
33271;DHT22;53180;51.344;6.152;2023-03-31T16:00:02;12.20;81.20
33271;DHT22;53180;51.344;6.152;2023-03-31T16:02:41;12.10;81.40
33271;DHT22;53180;51.344;6.152;2023-03-31T16:05:23;12.00;80.80
33271;DHT22;53180;51.344;6.152;2023-03-31T16:08:12;12.00;81.80
33271;DHT22;53180;51.344;6.152;2023-03-31T16:10:41;11.90;81.80
33271;DHT22;53180;51.344;6.152;2023-03-31T16:13:11;12.00;81.60
33271;DHT22;53180;51.344;6.152;2023-03-31T16:15:50;12.00;82.10
33271;DHT22;53180;51.344;6.152;2023-03-31T16:18:28;12.00;82.50
33271;DHT22;53180;51.344;6.152;2023-03-31T16:21:00;12.00;82.20
33271;DHT22;53180;51.344;6.152;2023-03-31T16:23:34;12.00;82.30
33271;DHT22;53180;51.344;6.152;2023-03-31T16:26:04;12.00;82.80
33271;DHT22;53180;51.344;6.152;2023-03-31T16:28:35;11.90;82.30
33271;DHT22;53180;51.344;6.152;2023-03-31T16:31:29;11.80;82.20